createdAt,value
2023-03-13T00:04:44.216Z,6.8
2023-03-13T00:10:07.816Z,6.9
2023-03-13T00:15:41.586Z,7.3
2023-03-13T00:21:19.021Z,7.2
2023-03-13T00:26:50.924Z,7.2
2023-03-13T00:32:22.350Z,7
2023-03-13T00:38:15.701Z,7
2023-03-13T00:43:52.679Z,7.1
2023-03-13T00:49:10.122Z,7
2023-03-13T00:54:33.272Z,7
2023-03-13T01:00:18.047Z,6.8
2023-03-13T01:05:50.426Z,6.7
2023-03-13T01:11:26.045Z,6.6
2023-03-13T01:17:06.356Z,6.7
2023-03-13T01:22:26.783Z,6.8
2023-03-13T01:28:14.796Z,6.8
2023-03-13T01:33:49.135Z,6.9
2023-03-13T01:39:18.919Z,7.2
2023-03-13T01:44:47.640Z,7.4
2023-03-13T01:50:28.756Z,7.5
2023-03-13T01:55:48.720Z,7.7
2023-03-13T02:01:26.395Z,7.8
2023-03-13T02:07:03.696Z,7.8
2023-03-13T02:12:24.625Z,8.5
2023-03-13T02:17:57.016Z,8.6
2023-03-13T02:23:46.726Z,8.8
2023-03-13T02:29:18.954Z,8.8
2023-03-13T02:34:47.235Z,8.9
2023-03-13T02:40:19.912Z,8.9
2023-03-13T02:46:07.725Z,9.1
2023-03-13T02:51:22.619Z,9.1
2023-03-13T02:57:02.484Z,9.1
2023-03-13T03:02:32.312Z,9.2
2023-03-13T03:08:03.140Z,9.2
2023-03-13T03:13:39.728Z,9.2
2023-03-13T03:19:27.785Z,9.2
2023-03-13T03:24:45.063Z,9.5
2023-03-13T03:30:42.489Z,9.7
2023-03-13T03:35:54.982Z,9.8
2023-03-13T03:41:46.035Z,9.8
2023-03-13T03:47:17.423Z,9.7
2023-03-13T03:52:37.055Z,9.6
2023-03-13T03:58:20.144Z,9.6
2023-03-13T04:03:48.624Z,9.5
2023-03-13T04:09:41.751Z,9.6
2023-03-13T04:14:57.422Z,9.6
2023-03-13T04:20:33.625Z,9.5
2023-03-13T04:26:23.239Z,9.5
2023-03-13T04:31:56.797Z,9.1
2023-03-13T04:37:35.646Z,9
2023-03-13T04:42:46.792Z,9
2023-03-13T04:48:29.814Z,9
2023-03-13T04:54:19.764Z,9.1
2023-03-13T05:05:04.624Z,9.2
2023-03-13T05:10:41.281Z,9.3
2023-03-13T05:16:36.337Z,9.5
2023-03-13T05:22:02.370Z,9.5
2023-03-13T05:27:42.671Z,9.5
2023-03-13T05:33:05.405Z,9.7
2023-03-13T05:38:48.706Z,9.8
2023-03-13T05:44:21.249Z,9.8
2023-03-13T05:49:52.874Z,9.9
2023-03-13T05:55:38.637Z,9.9
2023-03-13T06:01:13.958Z,10
2023-03-13T06:06:47.742Z,9.9
2023-03-13T06:12:02.040Z,10
2023-03-13T06:17:57.764Z,9.9
2023-03-13T06:23:17.312Z,9.7
2023-03-13T06:28:58.176Z,9.8
2023-03-13T06:34:14.168Z,9.8
2023-03-13T06:40:02.327Z,10
2023-03-13T06:45:44.432Z,10.2
2023-03-13T06:51:15.417Z,10.3
2023-03-13T06:56:59.241Z,10.4
2023-03-13T07:02:29.606Z,10.3
2023-03-13T07:08:03.205Z,10.1
2023-03-13T07:13:16.291Z,10
2023-03-13T07:18:51.378Z,10.3
2023-03-13T07:24:35.638Z,10.5
2023-03-13T07:30:07.660Z,10.6
2023-03-13T07:35:33.558Z,10.4
2023-03-13T07:41:16.818Z,10.2
2023-03-13T07:46:59.455Z,10.5
2023-03-13T07:52:40.566Z,11
2023-03-13T07:57:53.117Z,11.1
2023-03-13T08:03:32.007Z,11.4
2023-03-13T08:09:09.741Z,11.5
2023-03-13T08:14:48.387Z,11
2023-03-13T08:20:26.270Z,11.3
2023-03-13T08:25:52.727Z,11.3
2023-03-13T08:31:36.612Z,11.4
2023-03-13T08:37:23.088Z,11.2
2023-03-13T08:42:54.198Z,11.5
2023-03-13T08:48:21.608Z,11.4
2023-03-13T08:53:57.904Z,11.8
2023-03-13T08:59:35.872Z,11.9
2023-03-13T09:05:02.366Z,12.2
2023-03-13T09:10:28.406Z,13.2
2023-03-13T09:16:02.552Z,13.3
2023-03-13T09:21:52.718Z,13.6
2023-03-13T09:27:33.727Z,13.5
2023-03-13T09:32:52.855Z,13.3
2023-03-13T09:38:33.920Z,12.9
2023-03-13T09:44:22.246Z,13.1
2023-03-13T09:49:47.119Z,13.5
2023-03-13T09:55:29.970Z,13.5
2023-03-13T10:00:57.656Z,13.4
2023-03-13T10:06:40.845Z,14.2
2023-03-13T10:12:08.984Z,14.8
2023-03-13T10:17:44.982Z,15.1
2023-03-13T10:23:31.705Z,15.1
2023-03-13T10:29:03.442Z,14.9
2023-03-13T10:34:29.396Z,15.2
2023-03-13T10:40:19.578Z,15.1
2023-03-13T10:45:55.892Z,15
2023-03-13T10:51:23.071Z,15.2
2023-03-13T10:56:59.787Z,15.3
2023-03-13T11:02:46.833Z,15.8
2023-03-13T11:08:17.166Z,15.8
2023-03-13T11:13:55.921Z,16.2
2023-03-13T11:19:25.905Z,16.3
2023-03-13T11:25:02.337Z,16.1
2023-03-13T11:30:51.805Z,16.3
2023-03-13T11:36:25.485Z,16.4
2023-03-13T11:41:41.874Z,16.6
2023-03-13T11:47:38.752Z,16.8
2023-03-13T11:52:54.636Z,16.9
2023-03-13T11:58:49.687Z,17.2
2023-03-13T12:04:33.229Z,17.2
2023-03-13T12:09:51.449Z,17.4
2023-03-13T12:15:32.665Z,17.7
2023-03-13T12:21:26.108Z,17.8
2023-03-13T12:27:03.663Z,17.9
2023-03-13T12:32:32.901Z,17.9
2023-03-13T12:37:54.514Z,17.6
2023-03-13T12:43:35.902Z,17.3
2023-03-13T12:49:23.328Z,18
2023-03-13T12:54:57.662Z,17.9
2023-03-13T13:00:28.288Z,18.1
2023-03-13T13:06:08.219Z,18.1
2023-03-13T13:12:03.879Z,18.8
2023-03-13T13:17:34.833Z,18.7
2023-03-13T13:23:14.665Z,18.4
2023-03-13T13:28:28.651Z,19
2023-03-13T13:34:33.021Z,19.1
2023-03-13T13:40:01.527Z,18.5
2023-03-13T13:45:27.746Z,18.8
2023-03-13T13:51:21.129Z,18.8
2023-03-13T13:57:01.103Z,18.5
2023-03-13T14:02:30.278Z,19.1
2023-03-13T14:08:02.857Z,18.4
2023-03-13T14:13:40.499Z,18.6
2023-03-13T14:19:11.643Z,18.7
2023-03-13T14:24:58.394Z,19.2
2023-03-13T14:30:46.146Z,19
2023-03-13T14:36:16.228Z,18.6
2023-03-13T14:41:59.213Z,19.1
2023-03-13T14:47:25.734Z,18.6
2023-03-13T14:52:57.355Z,18.9
2023-03-13T14:58:52.356Z,18.5
2023-03-13T15:04:09.122Z,18.5
2023-03-13T15:10:07.793Z,18.5
2023-03-13T15:15:27.139Z,19
2023-03-13T15:21:13.088Z,19
2023-03-13T15:26:35.502Z,18.5
2023-03-13T15:32:33.273Z,18.5
2023-03-13T15:38:03.883Z,19.2
2023-03-13T15:43:25.972Z,19.2
2023-03-13T15:49:11.550Z,19.6
2023-03-13T15:55:01.340Z,18.8
2023-03-13T16:00:42.765Z,18.5
2023-03-13T16:06:18.041Z,18.1
2023-03-13T16:11:33.041Z,18.3
2023-03-13T16:17:08.500Z,18.3
2023-03-13T16:22:58.919Z,18.3
2023-03-13T16:28:34.851Z,18.2
2023-03-13T16:34:12.393Z,18.2
2023-03-13T16:39:50.447Z,17.9
2023-03-13T16:45:25.214Z,17.5
2023-03-13T16:50:49.532Z,17.3
2023-03-13T16:56:19.047Z,17.4
2023-03-13T17:02:02.600Z,17.3
2023-03-13T17:07:33.213Z,16.8
2023-03-13T17:13:03.154Z,16.6
2023-03-13T17:18:50.696Z,16.3
2023-03-13T17:24:11.050Z,16.3
2023-03-13T17:30:05.623Z,16.3
2023-03-13T17:35:27.706Z,15.5
2023-03-13T17:40:49.987Z,15.4
2023-03-13T17:46:35.831Z,15.6
2023-03-13T17:52:03.021Z,13.3
2023-03-13T17:57:48.174Z,12.9
2023-03-13T18:03:29.406Z,13.9
2023-03-13T18:08:45.061Z,13.4
2023-03-13T18:14:18.297Z,13.5
2023-03-13T18:20:14.632Z,12.4
2023-03-13T18:25:39.470Z,13.4
2023-03-13T18:31:13.081Z,13.2
2023-03-13T18:37:02.412Z,13.2
2023-03-13T18:42:30.243Z,13.2
2023-03-13T18:48:03.897Z,13.5
2023-03-13T18:53:26.824Z,13.2
2023-03-13T18:59:07.234Z,13.2
2023-03-13T19:04:55.248Z,13.7
2023-03-13T19:10:17.174Z,14.8
2023-03-13T19:16:07.069Z,15.2
2023-03-13T19:21:35.507Z,15.5
2023-03-13T19:32:26.869Z,15.3
2023-03-13T19:38:14.896Z,13.9
2023-03-13T19:43:55.731Z,13.6
2023-03-13T19:49:24.788Z,13.8
2023-03-13T19:55:04.563Z,13.5
2023-03-13T20:00:25.624Z,12.7
2023-03-13T20:06:20.878Z,12.9
2023-03-13T20:11:44.212Z,13.3
2023-03-13T20:17:09.303Z,14.5
2023-03-13T20:22:51.693Z,14.8
2023-03-13T20:28:21.152Z,15.6
2023-03-13T20:34:00.000Z,15.6
2023-03-13T20:39:43.391Z,15.5
2023-03-13T20:45:08.426Z,15.4
2023-03-13T20:50:54.515Z,15.2
2023-03-13T20:56:20.644Z,14.8
2023-03-13T21:02:05.477Z,13.8
2023-03-13T21:07:32.382Z,12.9
2023-03-13T21:12:54.649Z,12.7
2023-03-13T21:18:41.965Z,12.3
2023-03-13T21:24:26.399Z,11.6
2023-03-13T21:29:40.996Z,11.4
2023-03-13T21:35:16.949Z,10.8
2023-03-13T21:40:59.978Z,10.7
2023-03-13T21:46:24.818Z,10.6
2023-03-13T21:52:09.791Z,10.8
2023-03-13T21:57:54.887Z,10.7
2023-03-13T22:03:09.957Z,10.6
2023-03-13T22:08:41.024Z,10.7
2023-03-13T22:14:33.912Z,10.9
2023-03-13T22:20:04.373Z,10.8
2023-03-13T22:25:44.062Z,10.5
2023-03-13T22:30:59.848Z,10.1
2023-03-13T22:36:45.081Z,9.8
2023-03-13T22:42:27.412Z,9.7
2023-03-13T22:47:40.085Z,9.6
2023-03-13T22:53:20.484Z,9.3
2023-03-13T22:58:52.643Z,9.2
2023-03-13T23:04:34.400Z,9.1
2023-03-13T23:10:21.614Z,8.9
2023-03-13T23:15:54.620Z,8.8
2023-03-13T23:21:32.577Z,8.8
2023-03-13T23:27:07.392Z,8.7
2023-03-13T23:32:32.070Z,8.7
2023-03-13T23:38:04.487Z,8.6
2023-03-13T23:43:26.696Z,8.5
2023-03-13T23:49:03.937Z,8.5
2023-03-13T23:54:57.863Z,8.4
